Time;durP1;ratioP1;P1;durP2;ratioP2;P2;SDS_P1;SDS_P2;PMS_P1;PMS_P2;Temp;Humidity;BMP_temperature;BMP_pressure;BME280_temperature;BME280_humidity;BME280_pressure;Samples;Min_cycle;Max_cycle;Signal;HPM_P1;HPM_P2
2021/08/01 00:00:08;;;;;;;3.80;2.00;;;;;;;17.62;75.71;99255.16;5026885;28;20224;-68
2021/08/01 00:02:39;;;;;;;2.90;1.83;;;;;;;17.64;75.39;99251.22;5027391;28;20207;-69
2021/08/01 00:05:09;;;;;;;3.47;2.00;;;;;;;17.71;73.50;99253.22;5028675;28;20195;-69
2021/08/01 00:07:38;;;;;;;2.10;2.00;;;;;;;17.69;73.92;99243.38;5027909;28;20417;-69
2021/08/01 00:10:09;;;;;;;1.93;1.83;;;;;;;17.59;75.04;99245.50;5029343;28;20663;-69
2021/08/01 00:12:40;;;;;;;3.83;2.10;;;;;;;17.56;75.27;99245.03;5028543;28;20248;-68
2021/08/01 00:15:09;;;;;;;5.07;2.03;;;;;;;17.50;76.46;99243.91;5028949;28;20750;-68
2021/08/01 00:17:37;;;;;;;3.00;2.10;;;;;;;17.46;76.50;99242.59;5026189;28;20208;-68
2021/08/01 00:20:11;;;;;;;4.77;1.90;;;;;;;17.46;76.35;99244.47;5028481;28;20198;-68
2021/08/01 00:22:39;;;;;;;2.97;2.10;;;;;;;17.54;75.04;99245.22;5030917;28;20195;-69
2021/08/01 00:25:09;;;;;;;2.50;1.70;;;;;;;17.53;75.10;99243.53;5028892;28;20214;-69
2021/08/01 00:27:39;;;;;;;6.27;1.90;;;;;;;17.57;75.20;99247.56;5026734;28;20245;-68
2021/08/01 00:30:10;;;;;;;3.07;2.13;;;;;;;17.56;74.96;99240.47;5028935;28;20338;-69
2021/08/01 00:32:38;;;;;;;2.23;1.80;;;;;;;17.56;75.63;99236.91;5026944;28;20213;-68
2021/08/01 00:35:08;;;;;;;5.03;2.20;;;;;;;17.53;76.30;99248.97;5029447;28;20206;-69
2021/08/01 00:37:36;;;;;;;3.10;1.60;;;;;;;17.47;76.25;99229.88;5028376;28;20427;-68
2021/08/01 00:40:06;;;;;;;2.10;1.90;;;;;;;17.56;75.95;99237.75;5029629;28;20211;-68
2021/08/01 00:42:34;;;;;;;2.33;1.80;;;;;;;17.57;75.67;99242.13;5026598;28;20194;-68
2021/08/01 00:45:07;;;;;;;3.77;1.90;;;;;;;17.43;75.68;99218.53;5026838;28;20420;-68
2021/08/01 00:47:36;;;;;;;2.67;1.90;;;;;;;17.56;76.07;99242.31;5022508;28;20230;-68
2021/08/01 00:50:07;;;;;;;2.90;1.90;;;;;;;17.58;75.62;99238.41;5028050;28;20257;-68
2021/08/01 00:52:36;;;;;;;4.30;2.13;;;;;;;17.56;75.84;99236.91;5039211;28;20661;-69
2021/08/01 00:55:07;;;;;;;2.30;2.10;;;;;;;17.58;76.74;99240.25;5039983;28;20210;-68
2021/08/01 00:57:37;;;;;;;2.70;1.80;;;;;;;17.59;76.60;99234.66;5033693;28;20211;-69
2021/08/01 01:00:17;;;;;;;2.23;1.90;;;;;;;17.47;75.85;99217.16;5024044;28;20678;-70
2021/08/01 01:02:49;;;;;;;7.00;2.20;;;;;;;17.59;75.35;99233.81;5028646;28;20730;-70
2021/08/01 01:05:26;;;;;;;4.23;2.10;;;;;;;17.60;75.43;99232.78;5027799;28;20202;-70
2021/08/01 01:08:02;;;;;;;5.47;2.30;;;;;;;17.14;75.84;99183.19;5030247;28;20309;-70
2021/08/01 01:11:02;;;;;;;3.80;2.00;;;;;;;17.47;75.87;99241.56;4975805;28;20223;-70
2021/08/01 01:13:38;;;;;;;5.00;2.23;;;;;;;17.17;74.47;99174.72;5036021;28;20202;-70
2021/08/01 01:16:09;;;;;;;3.03;1.80;;;;;;;17.52;75.43;99241.84;5018392;28;20641;-70
2021/08/01 01:18:46;;;;;;;2.10;1.80;;;;;;;17.47;74.87;99236.16;5028203;28;20674;-70
2021/08/01 01:21:39;;;;;;;3.47;2.30;;;;;;;17.11;75.98;99179.00;5028981;28;20660;-70
2021/08/01 01:24:14;;;;;;;2.30;2.13;;;;;;;17.51;73.98;99237.47;5028415;28;20210;-70
2021/08/01 01:27:13;;;;;;;5.20;2.20;;;;;;;17.46;75.74;99242.59;5027693;28;20876;-70
2021/08/01 01:29:49;;;;;;;3.53;2.00;;;;;;;17.43;76.00;99240.22;5045078;28;20240;-70
2021/08/01 01:32:26;;;;;;;5.70;2.00;;;;;;;17.08;77.20;99191.06;5029805;28;20190;-70
2021/08/01 01:34:59;;;;;;;2.60;2.20;;;;;;;17.37;76.47;99241.81;5045464;28;20205;-70
2021/08/01 01:37:32;;;;;;;6.97;2.13;;;;;;;17.37;77.24;99235.56;5028456;28;20206;-70
2021/08/01 01:40:04;;;;;;;3.53;1.90;;;;;;;17.30;77.15;99235.44;5045359;28;20207;-70
2021/08/01 01:42:56;;;;;;;3.47;1.90;;;;;;;17.42;76.46;99230.41;5016220;28;20327;-70
2021/08/01 01:45:28;;;;;;;2.87;2.10;;;;;;;17.38;76.65;99235.38;5030127;28;20202;-70
2021/08/01 01:47:57;;;;;;;2.47;2.00;;;;;;;17.44;74.66;99228.34;5045354;28;20255;-70
2021/08/01 01:50:26;;;;;;;6.47;2.10;;;;;;;17.44;75.00;99230.22;5029998;28;20199;-71
2021/08/01 01:52:57;;;;;;;5.37;2.27;;;;;;;17.32;75.91;99232.56;5029589;28;20199;-70
2021/08/01 01:55:29;;;;;;;2.20;2.00;;;;;;;17.29;76.48;99230.22;5017338;28;20199;-70
2021/08/01 01:57:59;;;;;;;4.20;2.17;;;;;;;17.17;76.87;99243.38;5043744;28;20741;-70
2021/08/01 02:00:27;;;;;;;2.60;1.90;;;;;;;16.67;76.63;99160.75;5030037;28;20732;-70
2021/08/01 02:03:04;;;;;;;4.80;2.23;;;;;;;16.99;77.38;99224.72;5044061;28;20678;-70
2021/08/01 02:06:02;;;;;;;2.53;2.00;;;;;;;17.13;76.37;99238.50;5009100;28;20209;-69
2021/08/01 02:08:57;;;;;;;2.53;2.00;;;;;;;17.06;76.26;99243.81;5034845;28;20257;-70
2021/08/01 02:11:47;;;;;;;3.33;1.90;;;;;;;17.13;74.86;99241.19;5029183;28;20295;-68
2021/08/01 02:14:36;;;;;;;3.13;1.90;;;;;;;17.07;74.99;99245.50;5029554;28;20671;-68
2021/08/01 02:17:07;;;;;;;2.93;1.90;;;;;;;16.95;76.29;99233.41;5044542;28;20293;-68
2021/08/01 02:19:42;;;;;;;1.97;1.63;;;;;;;16.79;76.50;99225.38;5044614;28;20220;-68
2021/08/01 02:22:14;;;;;;;2.80;1.90;;;;;;;16.87;76.68;99236.19;5044279;28;20607;-68
2021/08/01 02:24:46;;;;;;;7.43;1.93;;;;;;;16.84;75.86;99229.25;5044668;28;20229;-70
2021/08/01 02:27:16;;;;;;;6.67;1.93;;;;;;;16.74;76.88;99239.47;5027859;28;20301;-70
2021/08/01 02:29:44;;;;;;;3.03;1.70;;;;;;;16.76;76.29;99240.16;5044382;28;20333;-69
2021/08/01 02:32:14;;;;;;;4.97;1.70;;;;;;;16.79;75.85;99245.22;5044404;28;20492;-68
2021/08/01 02:34:44;;;;;;;2.87;1.90;;;;;;;16.73;76.90;99243.22;5044644;28;20212;-68
2021/08/01 02:37:16;;;;;;;2.30;1.60;;;;;;;16.66;76.42;99237.69;5044411;28;20256;-70
2021/08/01 02:39:47;;;;;;;2.23;1.77;;;;;;;16.61;76.95;99250.06;5029349;28;20566;-68
2021/08/01 02:42:16;;;;;;;3.93;1.80;;;;;;;15.99;77.09;99144.44;5028881;28;20233;-68
2021/08/01 02:44:45;;;;;;;4.80;1.70;;;;;;;16.24;77.04;99192.03;5021777;28;20661;-68
2021/08/01 02:47:18;;;;;;;4.40;2.07;;;;;;;16.46;77.83;99245.38;5035464;28;20542;-68
2021/08/01 02:49:48;;;;;;;2.43;1.70;;;;;;;16.45;77.80;99240.16;5028822;28;20229;-69
2021/08/01 02:52:21;;;;;;;4.53;1.77;;;;;;;16.38;77.79;99234.59;5029162;28;20554;-70
2021/08/01 02:54:51;;;;;;;1.73;1.63;;;;;;;16.46;77.44;99244.53;5015717;28;20762;-70
2021/08/01 02:57:25;;;;;;;1.70;1.60;;;;;;;16.52;76.57;99238.41;5027857;28;20234;-70
2021/08/01 02:59:56;;;;;;;1.70;1.60;;;;;;;16.48;75.83;99228.94;5029514;28;20297;-68
2021/08/01 03:02:25;;;;;;;4.23;2.00;;;;;;;16.58;75.68;99243.13;5029333;28;20337;-70
2021/08/01 03:04:59;;;;;;;2.10;1.90;;;;;;;16.40;76.77;99213.59;5044588;28;20678;-69
2021/08/01 03:07:29;;;;;;;3.20;1.87;;;;;;;16.54;76.58;99236.41;5044627;28;20202;-68
2021/08/01 03:10:00;;;;;;;1.70;1.60;;;;;;;16.55;76.02;99239.94;5028866;28;20207;-69
2021/08/01 03:12:29;;;;;;;3.83;2.00;;;;;;;16.61;75.23;99239.22;5027547;28;20202;-70
2021/08/01 03:14:57;;;;;;;4.13;1.80;;;;;;;16.59;75.43;99243.97;5024573;28;20469;-68
2021/08/01 03:17:25;;;;;;;4.43;2.00;;;;;;;16.44;75.06;99217.63;5027898;28;20201;-69
2021/08/01 03:19:55;;;;;;;2.53;1.83;;;;;;;16.59;74.75;99235.84;5044331;28;20209;-69
2021/08/01 03:22:24;;;;;;;3.63;2.10;;;;;;;16.55;76.21;99248.91;5044082;28;20232;-68
2021/08/01 03:24:52;;;;;;;2.30;2.10;;;;;;;16.59;75.85;99252.94;5043914;28;20206;-69
2021/08/01 03:27:22;;;;;;;6.73;2.00;;;;;;;16.60;76.07;99253.78;5044414;28;20635;-69
2021/08/01 03:29:51;;;;;;;4.07;1.93;;;;;;;16.66;75.81;99247.69;5032383;28;20758;-69
2021/08/01 03:32:19;;;;;;;3.70;2.10;;;;;;;16.67;77.13;99252.09;5032182;28;20222;-69
2021/08/01 03:34:51;;;;;;;3.00;1.80;;;;;;;16.74;77.38;99250.31;5031129;28;20230;-68
2021/08/01 03:37:26;;;;;;;5.47;1.97;;;;;;;16.77;77.03;99248.09;5047736;28;20199;-69
2021/08/01 03:40:14;;;;;;;2.93;2.10;;;;;;;16.87;77.08;99247.88;5032588;28;20340;-68
2021/08/01 03:42:44;;;;;;;5.40;1.80;;;;;;;17.00;77.22;99242.69;5030959;28;20206;-68
2021/08/01 03:45:13;;;;;;;2.73;1.93;;;;;;;17.07;75.55;99249.03;5032315;28;20289;-68
2021/08/01 03:47:42;;;;;;;4.67;1.80;;;;;;;17.12;76.78;99250.38;5047408;28;20584;-68
2021/08/01 03:50:10;;;;;;;4.67;2.23;;;;;;;17.14;77.28;99253.75;5027909;28;20223;-69
2021/08/01 03:52:38;;;;;;;2.20;2.00;;;;;;;17.21;76.94;99252.00;5034151;28;20599;-69
2021/08/01 03:55:11;;;;;;;2.17;1.90;;;;;;;17.26;76.78;99252.28;5023867;28;20656;-70
2021/08/01 03:57:39;;;;;;;2.10;2.00;;;;;;;17.38;76.19;99257.06;5027576;28;20195;-69
2021/08/01 04:00:12;;;;;;;2.40;2.07;;;;;;;17.34;76.22;99254.91;5031569;28;20198;-70
2021/08/01 04:02:40;;;;;;;1.70;1.60;;;;;;;17.20;77.06;99242.19;5031277;28;20811;-70
2021/08/01 04:05:10;;;;;;;2.10;1.90;;;;;;;17.27;76.82;99260.25;5031659;28;20630;-70
2021/08/01 04:07:38;;;;;;;3.70;2.10;;;;;;;17.29;76.45;99268.19;5031489;28;20199;-68
2021/08/01 04:10:07;;;;;;;2.60;1.93;;;;;;;17.29;76.02;99269.03;5031858;28;20289;-69
2021/08/01 04:12:37;;;;;;;6.67;2.10;;;;;;;17.30;76.69;99270.72;5031731;28;20195;-68
2021/08/01 04:15:07;;;;;;;3.93;2.13;;;;;;;17.39;75.89;99274.19;5031446;28;20225;-69
2021/08/01 04:17:36;;;;;;;4.93;2.27;;;;;;;17.43;74.56;99258.41;5032018;28;20203;-68
2021/08/01 04:20:05;;;;;;;2.87;2.13;;;;;;;17.54;75.09;99280.53;5031438;28;20226;-68
2021/08/01 04:22:34;;;;;;;1.97;1.70;;;;;;;17.50;76.05;99281.91;5031569;28;20735;-69
2021/08/01 04:25:02;;;;;;;4.30;2.10;;;;;;;17.60;75.75;99285.22;5031533;28;20229;-68
2021/08/01 04:27:30;;;;;;;5.43;2.07;;;;;;;17.58;75.77;99289.13;5031311;28;20635;-69
2021/08/01 04:29:59;;;;;;;2.87;2.07;;;;;;;17.74;75.16;99288.97;5031140;28;20234;-70
2021/08/01 04:32:27;;;;;;;4.00;2.07;;;;;;;17.89;73.32;99292.56;5031191;28;20667;-70
2021/08/01 04:34:56;;;;;;;4.97;1.90;;;;;;;17.93;73.87;99287.59;5030736;28;20286;-70
2021/08/01 04:37:25;;;;;;;3.47;2.03;;;;;;;17.96;73.35;99298.09;5029931;28;20218;-68
2021/08/01 04:39:53;;;;;;;3.70;2.30;;;;;;;18.07;73.23;99303.06;5031419;28;20199;-70
2021/08/01 04:42:21;;;;;;;5.53;2.20;;;;;;;18.00;71.66;99275.78;5031100;28;20203;-70
2021/08/01 04:44:49;;;;;;;3.77;1.70;;;;;;;18.15;72.67;99308.41;5031001;28;20205;-70
2021/08/01 04:47:18;;;;;;;4.57;2.07;;;;;;;18.16;72.71;99304.66;5030823;28;20203;-68
2021/08/01 04:49:46;;;;;;;4.03;2.07;;;;;;;18.26;71.97;99297.06;5030751;28;20297;-70
2021/08/01 04:52:19;;;;;;;7.83;2.00;;;;;;;18.27;73.11;99290.59;5030581;28;20194;-70
2021/08/01 04:54:48;;;;;;;2.77;1.70;;;;;;;18.53;71.91;99306.38;5017273;28;20198;-70
2021/08/01 04:57:16;;;;;;;3.27;2.07;;;;;;;18.49;72.42;99315.97;5031003;28;20199;-68
2021/08/01 04:59:44;;;;;;;5.57;2.10;;;;;;;18.57;72.55;99321.28;5030504;28;20267;-69
2021/08/01 05:02:12;;;;;;;1.50;1.40;;;;;;;18.62;72.30;99315.31;5030811;28;20225;-69
2021/08/01 05:04:40;;;;;;;3.97;1.70;;;;;;;18.73;71.29;99333.88;5030310;28;20551;-69
2021/08/01 05:07:08;;;;;;;1.90;1.70;;;;;;;18.74;71.24;99330.09;5030325;28;20198;-69
2021/08/01 05:09:38;;;;;;;6.63;1.70;;;;;;;18.78;71.00;99325.97;5030563;28;20420;-69
2021/08/01 05:12:06;;;;;;;3.20;1.50;;;;;;;18.88;70.59;99325.66;5030681;28;20190;-69
2021/08/01 05:14:34;;;;;;;1.90;1.60;;;;;;;18.81;70.23;99325.59;5030794;28;20205;-70
2021/08/01 05:17:03;;;;;;;2.73;1.60;;;;;;;18.96;70.48;99338.28;5030339;28;20234;-70
2021/08/01 05:19:32;;;;;;;3.20;1.60;;;;;;;19.17;69.22;99332.88;5031303;28;20310;-69
2021/08/01 05:22:00;;;;;;;9.17;1.70;;;;;;;19.18;70.19;99338.13;5030462;28;20799;-68
2021/08/01 05:24:28;;;;;;;4.87;1.60;;;;;;;19.21;70.13;99336.88;5045886;28;20199;-68
2021/08/01 05:26:57;;;;;;;1.70;1.47;;;;;;;19.36;69.86;99342.28;5030034;28;20208;-69
2021/08/01 05:29:26;;;;;;;2.80;1.60;;;;;;;19.28;69.43;99348.66;5029801;28;20321;-68
2021/08/01 05:31:54;;;;;;;5.43;1.50;;;;;;;19.34;68.40;99341.63;5029506;28;20208;-70
2021/08/01 05:34:23;;;;;;;1.77;1.40;;;;;;;19.36;68.78;99356.72;5009914;28;20245;-70
2021/08/01 05:36:52;;;;;;;3.50;1.40;;;;;;;19.36;69.36;99351.28;5022545;28;20199;-69
2021/08/01 05:39:20;;;;;;;3.27;1.60;;;;;;;19.41;69.01;99358.88;5045102;28;20198;-70
2021/08/01 05:41:48;;;;;;;1.97;1.40;;;;;;;19.48;68.94;99357.88;5029799;28;20202;-69
2021/08/01 05:44:18;;;;;;;5.60;1.57;;;;;;;19.50;68.35;99349.53;5029537;28;20191;-68
2021/08/01 05:46:46;;;;;;;4.10;1.60;;;;;;;19.48;68.55;99340.69;5029792;28;20250;-69
2021/08/01 05:49:14;;;;;;;6.23;1.80;;;;;;;19.64;67.92;99335.03;5029708;28;20254;-68
2021/08/01 05:51:42;;;;;;;2.67;1.73;;;;;;;19.85;67.74;99353.19;5029054;28;20218;-70
2021/08/01 05:54:11;;;;;;;6.47;1.87;;;;;;;19.88;67.33;99352.78;5029567;28;20198;-70
2021/08/01 05:56:39;;;;;;;2.40;1.60;;;;;;;19.87;66.16;99353.00;5030205;28;20674;-70
2021/08/01 05:59:07;;;;;;;2.03;1.47;;;;;;;19.97;65.68;99348.91;5045341;28;20210;-70
2021/08/01 06:01:36;;;;;;;7.10;1.50;;;;;;;20.07;64.49;99353.97;5029671;28;20205;-70
2021/08/01 06:04:05;;;;;;;6.93;1.90;;;;;;;19.94;65.64;99349.28;5029453;28;20222;-70
2021/08/01 06:06:33;;;;;;;2.50;1.40;;;;;;;20.01;64.69;99344.72;5029632;28;20210;-70
2021/08/01 06:09:03;;;;;;;4.37;1.80;;;;;;;20.06;64.09;99358.59;5029775;28;20202;-71
2021/08/01 06:11:32;;;;;;;5.17;1.53;;;;;;;20.20;63.62;99362.25;5029282;28;20226;-70
2021/08/01 06:14:00;;;;;;;3.77;1.30;;;;;;;19.94;63.95;99349.28;5042520;28;20198;-70
2021/08/01 06:16:30;;;;;;;4.30;1.50;;;;;;;20.09;64.07;99366.38;5026254;28;20580;-69
2021/08/01 06:19:09;;;;;;;2.70;1.53;;;;;;;20.22;64.33;99373.81;5027757;28;20272;-69
2021/08/01 06:21:37;;;;;;;4.87;1.40;;;;;;;20.54;63.00;99366.91;5028331;28;20281;-69
2021/08/01 06:24:06;;;;;;;4.20;1.63;;;;;;;20.55;61.89;99378.66;5026280;28;20538;-69
2021/08/01 06:26:34;;;;;;;4.03;1.40;;;;;;;20.59;62.09;99380.78;5027907;28;20203;-67
2021/08/01 06:29:02;;;;;;;3.50;1.43;;;;;;;20.71;61.86;99383.75;5025910;28;20234;-69
2021/08/01 06:31:31;;;;;;;1.97;1.10;;;;;;;21.09;60.76;99387.66;5039282;28;20231;-69
2021/08/01 06:33:59;;;;;;;3.00;1.30;;;;;;;20.71;61.06;99321.84;5025327;28;20191;-69
2021/08/01 06:36:29;;;;;;;3.20;1.70;;;;;;;21.18;60.12;99380.16;5026965;28;20194;-69
2021/08/01 06:38:57;;;;;;;4.47;1.40;;;;;;;21.19;60.14;99386.47;5027226;28;20211;-69
2021/08/01 06:41:25;;;;;;;1.40;1.30;;;;;;;21.48;59.46;99383.41;5025484;28;20734;-68
2021/08/01 06:43:53;;;;;;;4.17;1.80;;;;;;;21.33;59.41;99385.47;5024635;28;20195;-68
2021/08/01 06:46:22;;;;;;;2.13;1.23;;;;;;;21.44;58.92;99401.28;5025517;28;20213;-68
2021/08/01 06:48:50;;;;;;;1.40;1.30;;;;;;;21.33;58.39;99378.09;5026559;28;20206;-68
2021/08/01 06:51:18;;;;;;;3.13;1.40;;;;;;;21.35;58.86;99388.84;5017941;28;20266;-68
2021/08/01 06:53:47;;;;;;;3.47;1.50;;;;;;;21.24;59.05;99403.94;5036088;28;20202;-68
2021/08/01 06:56:16;;;;;;;4.70;1.73;;;;;;;21.15;58.88;99399.69;5019268;28;20204;-68
2021/08/01 06:58:44;;;;;;;1.23;1.20;;;;;;;21.29;58.11;99412.34;5022159;28;20210;-70
2021/08/01 07:01:12;;;;;;;4.97;1.40;;;;;;;21.58;58.32;99413.03;5019621;28;20273;-69
2021/08/01 07:03:40;;;;;;;6.83;1.23;;;;;;;21.50;57.04;99414.09;5032622;28;20543;-69
2021/08/01 07:06:10;;;;;;;2.13;1.30;;;;;;;21.36;56.13;99415.09;5032628;28;20205;-69
2021/08/01 07:08:38;;;;;;;4.13;1.43;;;;;;;21.15;56.57;99412.50;5022941;28;20641;-69
2021/08/01 07:11:08;;;;;;;3.33;1.00;;;;;;;21.26;56.11;99420.97;5032605;28;20210;-69
2021/08/01 07:13:36;;;;;;;2.73;1.10;;;;;;;21.19;56.47;99397.38;5031970;28;20498;-68
2021/08/01 07:16:05;;;;;;;2.87;1.50;;;;;;;21.31;56.35;99380.22;5029137;28;20207;-69
2021/08/01 07:18:33;;;;;;;2.00;1.40;;;;;;;21.57;55.60;99422.28;5031111;28;20205;-68
2021/08/01 07:21:02;;;;;;;3.53;1.23;;;;;;;21.97;55.20;99412.22;5029002;28;20210;-68
2021/08/01 07:23:30;;;;;;;5.20;1.60;;;;;;;22.25;54.55;99422.97;5020099;28;20190;-68
2021/08/01 07:25:58;;;;;;;2.53;1.20;;;;;;;22.54;53.69;99417.03;5046667;28;20207;-68
2021/08/01 07:28:28;;;;;;;3.77;1.20;;;;;;;23.07;52.01;99425.13;5046904;28;20207;-68
2021/08/01 07:30:56;;;;;;;5.57;1.40;;;;;;;22.71;51.67;99430.28;5028643;28;20207;-67
2021/08/01 07:33:24;;;;;;;3.43;1.20;;;;;;;22.54;51.33;99436.19;5030491;28;20202;-69
2021/08/01 07:35:53;;;;;;;2.97;1.17;;;;;;;22.67;50.54;99431.75;5029022;28;20195;-69
2021/08/01 07:38:21;;;;;;;2.60;1.03;;;;;;;22.67;50.13;99434.50;5027351;28;20698;-69
2021/08/01 07:40:49;;;;;;;4.57;1.30;;;;;;;22.72;50.06;99454.69;5029892;28;20290;-69
2021/08/01 07:43:17;;;;;;;3.87;1.20;;;;;;;21.96;50.06;99391.41;5014537;28;20395;-69
2021/08/01 07:45:46;;;;;;;6.67;1.47;;;;;;;22.11;50.53;99462.34;5031151;28;20203;-68
2021/08/01 07:48:15;;;;;;;5.90;1.93;;;;;;;21.90;50.80;99466.91;5031684;28;20198;-68
2021/08/01 07:50:43;;;;;;;5.63;1.47;;;;;;;21.36;50.34;99426.03;5028894;28;20219;-68
2021/08/01 07:53:12;;;;;;;2.43;1.00;;;;;;;21.65;51.16;99474.84;5027255;28;20245;-68
2021/08/01 07:55:42;;;;;;;3.70;1.17;;;;;;;21.26;51.45;99414.66;5029856;28;20277;-69
2021/08/01 07:58:10;;;;;;;3.50;1.00;;;;;;;21.28;51.16;99465.28;5028177;28;20226;-68
2021/08/01 08:00:38;;;;;;;4.40;1.40;;;;;;;21.09;51.20;99482.41;5030340;28;20202;-68
2021/08/01 08:03:08;;;;;;;3.87;1.00;;;;;;;21.25;51.80;99482.09;5028188;28;20256;-68
2021/08/01 08:05:37;;;;;;;5.93;1.23;;;;;;;21.11;52.36;99474.84;5024176;28;20286;-68
2021/08/01 08:08:05;;;;;;;3.97;1.10;;;;;;;20.86;52.34;99473.69;5014018;28;20223;-67
2021/08/01 08:10:33;;;;;;;2.87;1.30;;;;;;;20.91;52.80;99482.13;5016912;28;20564;-69
2021/08/01 08:13:01;;;;;;;4.33;1.23;;;;;;;20.85;53.02;99482.94;5029507;28;20223;-68
2021/08/01 08:15:30;;;;;;;2.50;1.00;;;;;;;21.11;53.01;99483.03;5028196;28;20306;-68
2021/08/01 08:17:58;;;;;;;2.90;1.10;;;;;;;21.04;52.87;99474.81;5030290;28;20201;-68
2021/08/01 08:20:27;;;;;;;5.37;1.10;;;;;;;21.19;53.51;99485.63;5030933;28;20199;-68
2021/08/01 08:22:55;;;;;;;5.93;1.57;;;;;;;21.28;52.86;99478.94;5029653;28;20230;-69
2021/08/01 08:25:24;;;;;;;2.90;1.10;;;;;;;21.32;53.60;99491.16;5029437;28;20195;-69
2021/08/01 08:27:52;;;;;;;4.03;1.30;;;;;;;21.37;53.88;99483.19;5029534;28;20198;-68
2021/08/01 08:30:20;;;;;;;5.33;1.30;;;;;;;21.53;53.33;99483.88;5027474;28;20254;-69
2021/08/01 08:32:48;;;;;;;3.90;1.23;;;;;;;21.56;52.62;99481.56;5028325;28;20222;-69
2021/08/01 08:35:16;;;;;;;4.80;1.40;;;;;;;21.37;52.01;99488.66;5029109;28;20552;-68
2021/08/01 08:37:49;;;;;;;4.00;1.30;;;;;;;21.50;51.82;99495.22;5029548;28;20503;-68
2021/08/01 08:40:21;;;;;;;4.23;1.30;;;;;;;21.16;52.08;99442.34;5029781;28;20567;-67
2021/08/01 08:42:50;;;;;;;3.83;1.10;;;;;;;21.37;51.43;99493.25;5029789;28;20226;-72
2021/08/01 08:45:19;;;;;;;4.33;1.10;;;;;;;21.35;51.17;99485.28;5030579;28;20290;-67
2021/08/01 08:47:49;;;;;;;4.47;1.23;;;;;;;21.34;51.38;99486.31;5029913;28;20203;-68
2021/08/01 08:50:19;;;;;;;3.20;1.40;;;;;;;21.54;51.63;99493.75;5030422;28;20289;-68
2021/08/01 08:52:55;;;;;;;9.50;1.23;;;;;;;21.46;51.61;99409.25;5026885;28;20297;-69
2021/08/01 08:55:27;;;;;;;7.17;1.20;;;;;;;22.00;51.13;99439.16;5018435;28;20198;-68
2021/08/01 08:58:02;;;;;;;3.30;1.40;;;;;;;22.59;50.68;99482.06;5029215;28;20210;-68
2021/08/01 09:00:31;;;;;;;2.93;1.23;;;;;;;22.54;50.33;99452.63;5029442;28;20206;-68
2021/08/01 09:03:00;;;;;;;2.20;0.90;;;;;;;22.68;49.76;99480.81;5026022;28;20202;-68
2021/08/01 09:05:28;;;;;;;2.20;1.00;;;;;;;22.72;49.16;99483.97;5027990;28;20199;-67
2021/08/01 09:07:58;;;;;;;3.70;1.17;;;;;;;22.97;48.49;99484.16;5027226;28;20209;-68
2021/08/01 09:10:27;;;;;;;3.77;1.10;;;;;;;23.35;48.54;99487.78;5028269;28;20597;-67
2021/08/01 09:12:55;;;;;;;2.07;1.00;;;;;;;23.58;47.36;99483.72;5024224;28;20218;-68
2021/08/01 09:15:25;;;;;;;3.17;0.90;;;;;;;23.89;46.40;99485.66;5027287;28;20186;-68
2021/08/01 09:17:54;;;;;;;2.30;1.27;;;;;;;23.63;46.71;99483.91;5026777;28;20226;-68
2021/08/01 09:20:23;;;;;;;6.23;0.90;;;;;;;23.66;46.43;99484.28;5027756;28;20221;-67
2021/08/01 09:23:07;;;;;;;1.27;1.13;;;;;;;23.99;45.39;99484.09;5027039;28;20582;-67
2021/08/01 09:25:37;;;;;;;4.30;0.87;;;;;;;24.04;45.73;99486.16;5025992;28;20742;-68
2021/08/01 09:28:11;;;;;;;3.40;1.07;;;;;;;23.72;44.90;99488.91;5041599;28;20210;-68
2021/08/01 09:30:50;;;;;;;2.93;1.17;;;;;;;23.56;46.40;99445.53;5026672;28;20360;-68
2021/08/01 09:33:37;;;;;;;2.07;1.10;;;;;;;23.54;46.34;99475.03;5024499;28;20233;-68
2021/08/01 09:36:10;;;;;;;5.07;1.27;;;;;;;23.76;45.93;99470.94;5026815;28;20226;-67
2021/08/01 09:38:51;;;;;;;9.43;1.37;;;;;;;23.60;43.52;99468.72;5026238;28;20495;-68
2021/08/01 09:41:21;;;;;;;2.47;1.30;;;;;;;23.47;45.04;99460.53;5025781;28;20190;-68
2021/08/01 09:43:51;;;;;;;2.37;0.90;;;;;;;23.66;44.94;99470.59;5027215;28;20202;-67
2021/08/01 09:46:20;;;;;;;2.53;1.37;;;;;;;23.39;45.41;99452.56;5025456;28;20602;-68
2021/08/01 09:49:09;;;;;;;5.93;1.20;;;;;;;23.93;44.31;99457.53;5027174;28;20210;-68
2021/08/01 09:51:41;;;;;;;4.67;1.17;;;;;;;24.70;45.56;99466.38;5025367;28;20277;-68
2021/08/01 09:54:11;;;;;;;1.70;0.80;;;;;;;24.90;44.40;99464.28;5014131;28;20230;-68
2021/08/01 09:56:51;;;;;;;4.10;1.13;;;;;;;25.20;44.66;99455.28;5010352;28;20279;-68
2021/08/01 09:59:21;;;;;;;4.63;1.00;;;;;;;25.27;43.73;99453.28;5020184;28;20206;-68
2021/08/01 10:01:50;;;;;;;4.73;1.00;;;;;;;25.31;42.81;99460.00;5025034;28;20531;-68
2021/08/01 10:04:27;;;;;;;3.90;1.00;;;;;;;25.49;41.70;99428.88;5024580;28;20195;-68
2021/08/01 10:07:05;;;;;;;3.40;0.83;;;;;;;26.05;42.03;99455.16;5025040;28;20187;-68
2021/08/01 10:09:36;;;;;;;2.17;1.00;;;;;;;25.94;40.80;99434.78;5023197;28;20203;-68
2021/08/01 10:12:05;;;;;;;0.87;0.87;;;;;;;26.33;41.35;99448.94;5023771;28;20695;-68
2021/08/01 10:14:34;;;;;;;5.38;1.35;;;;;;;25.96;39.69;99462.91;5021861;28;20190;-68
2021/08/01 10:17:03;;;;;;;5.40;1.00;;;;;;;26.17;40.39;99456.84;5022447;28;20590;-68
2021/08/01 10:19:32;;;;;;;4.00;1.10;;;;;;;25.97;40.38;99434.31;5025184;28;20642;-68
2021/08/01 10:22:03;;;;;;;2.80;1.05;;;;;;;25.95;40.56;99463.97;5023473;28;20205;-68
2021/08/01 10:24:34;;;;;;;2.13;1.00;;;;;;;26.06;40.88;99473.34;5027138;28;20302;-67
2021/08/01 10:27:06;;;;;;;3.33;1.20;;;;;;;26.13;40.96;99474.06;5024820;28;20460;-68
2021/08/01 10:29:40;;;;;;;2.70;1.00;;;;;;;25.72;40.57;99474.94;5026688;28;20234;-67
2021/08/01 10:32:11;;;;;;;4.97;1.20;;;;;;;25.68;41.41;99439.63;5026911;28;20222;-67
2021/08/01 10:34:46;;;;;;;2.95;1.40;;;;;;;25.92;40.95;99480.97;5026125;28;20491;-67
2021/08/01 10:37:22;;;;;;;3.40;1.00;;;;;;;25.58;40.39;99472.31;5026360;28;20716;-67
2021/08/01 10:39:50;;;;;;;1.90;0.85;;;;;;;25.10;40.50;99479.69;5028062;28;20202;-66
2021/08/01 10:42:24;;;;;;;2.50;0.90;;;;;;;25.06;40.74;99476.56;5030507;28;20202;-67
2021/08/01 10:44:53;;;;;;;0.88;0.88;;;;;;;25.26;39.38;99470.84;5030572;28;20237;-67
2021/08/01 10:47:22;;;;;;;4.25;1.10;;;;;;;25.45;39.14;99477.19;5029924;28;20312;-67
2021/08/01 10:49:51;;;;;;;3.53;1.02;;;;;;;25.61;40.57;99466.34;5029924;28;20221;-67
2021/08/01 10:52:20;;;;;;;1.67;0.95;;;;;;;25.97;40.27;99492.94;5029855;28;20456;-67
2021/08/01 10:54:54;;;;;;;1.85;0.82;;;;;;;25.78;40.15;99479.50;5027260;28;20191;-67
2021/08/01 10:57:25;;;;;;;2.50;1.00;;;;;;;25.55;38.99;99475.53;5029684;28;20198;-66
2021/08/01 11:00:03;;;;;;;1.70;1.00;;;;;;;25.24;39.78;99482.06;5029345;28;20286;-66
2021/08/01 11:02:33;;;;;;;2.80;1.10;;;;;;;25.20;41.52;99483.59;5031224;28;20214;-67
2021/08/01 11:05:37;;;;;;;1.38;0.95;;;;;;;24.95;41.03;99482.81;5027487;28;20211;-66
2021/08/01 11:08:08;;;;;;;1.15;0.98;;;;;;;24.74;40.35;99475.84;4993881;28;20205;-66
2021/08/01 11:10:38;;;;;;;2.60;1.10;;;;;;;24.83;42.40;99482.75;5018941;28;20322;-66
2021/08/01 11:13:38;;;;;;;2.03;0.93;;;;;;;25.03;40.57;99480.63;5028903;28;20255;-66
2021/08/01 11:16:09;;;;;;;5.00;1.00;;;;;;;24.80;40.79;99488.69;5031280;28;20274;-68
2021/08/01 11:18:40;;;;;;;2.70;1.10;;;;;;;25.18;42.36;99487.66;5029878;28;20222;-67
2021/08/01 11:21:10;;;;;;;1.55;0.90;;;;;;;25.19;42.21;99450.84;5030664;28;20282;-66
2021/08/01 11:24:10;;;;;;;1.45;1.02;;;;;;;25.38;39.54;99496.47;5028591;28;20202;-67
2021/08/01 11:27:15;;;;;;;6.53;1.15;;;;;;;25.16;40.22;99468.66;5029401;28;20557;-67
2021/08/01 11:30:06;;;;;;;3.30;0.93;;;;;;;25.29;39.06;99493.22;5030563;28;20710;-67
2021/08/01 11:32:51;;;;;;;1.80;0.90;;;;;;;24.84;41.04;99443.22;5027758;28;20202;-66
2021/08/01 11:35:21;;;;;;;4.47;1.00;;;;;;;25.05;42.02;99488.63;5026659;28;20198;-66
2021/08/01 11:38:11;;;;;;;1.17;0.90;;;;;;;24.95;41.63;99488.31;5027150;28;20199;-67
2021/08/01 11:40:47;;;;;;;1.33;0.93;;;;;;;24.95;41.99;99489.16;5028058;28;20203;-67
2021/08/01 11:43:15;;;;;;;1.58;1.20;;;;;;;24.95;41.75;99500.13;5027357;28;20754;-68
2021/08/01 11:46:01;;;;;;;2.40;0.90;;;;;;;25.17;39.66;99499.72;5027290;28;20196;-68
2021/08/01 11:48:30;;;;;;;2.05;1.10;;;;;;;25.35;40.84;99488.69;5030093;28;20204;-68
2021/08/01 11:50:58;;;;;;;2.22;1.13;;;;;;;25.87;42.65;99509.19;5030644;28;20685;-68
2021/08/01 11:53:27;;;;;;;2.55;1.40;;;;;;;25.86;41.16;99509.41;5025991;28;20245;-68